sensor_id;sensor_type;location;lat;lon;timestamp;pressure;altitude;pressure_sealevel;temperature;humidity
71476;BME280;59286;59.274;17.974;2023-07-02T00:00:03;99057.94;;;15.68;78.26
71476;BME280;59286;59.274;17.974;2023-07-02T00:02:30;99058.75;;;15.75;79.17
71476;BME280;59286;59.274;17.974;2023-07-02T00:04:55;99064.84;;;15.83;78.75
71476;BME280;59286;59.274;17.974;2023-07-02T00:07:21;99064.81;;;15.79;79.02
71476;BME280;59286;59.274;17.974;2023-07-02T00:09:46;99061.84;;;15.84;78.97
71476;BME280;59286;59.274;17.974;2023-07-02T00:12:11;99058.09;;;15.89;79.22
71476;BME280;59286;59.274;17.974;2023-07-02T00:14:37;99055.88;;;15.94;79.23
71476;BME280;59286;59.274;17.974;2023-07-02T00:17:02;99055.13;;;15.94;79.09
71476;BME280;59286;59.274;17.974;2023-07-02T00:19:29;99060.06;;;16.02;78.64
71476;BME280;59286;59.274;17.974;2023-07-02T00:21:54;99056.34;;;16.07;78.17
71476;BME280;59286;59.274;17.974;2023-07-02T00:24:20;99052.94;;;16.06;78.21
71476;BME280;59286;59.274;17.974;2023-07-02T00:26:45;99052.25;;;16.13;78.35
71476;BME280;59286;59.274;17.974;2023-07-02T00:29:11;99050.34;;;16.13;78.99
71476;BME280;59286;59.274;17.974;2023-07-02T00:31:37;99043.91;;;16.07;78.87
71476;BME280;59286;59.274;17.974;2023-07-02T00:34:03;99045.41;;;16.12;78.79
71476;BME280;59286;59.274;17.974;2023-07-02T00:36:29;99043.16;;;16.10;78.84
71476;BME280;59286;59.274;17.974;2023-07-02T00:38:56;99029.53;;;16.08;78.29
71476;BME280;59286;59.274;17.974;2023-07-02T00:41:21;99022.69;;;16.04;78.48
71476;BME280;59286;59.274;17.974;2023-07-02T00:43:47;99027.25;;;16.07;78.23
71476;BME280;59286;59.274;17.974;2023-07-02T00:46:15;99028.78;;;16.08;78.63
71476;BME280;59286;59.274;17.974;2023-07-02T00:48:50;99018.16;;;16.01;78.50
71476;BME280;59286;59.274;17.974;2023-07-02T00:51:20;99018.91;;;15.98;78.94
71476;BME280;59286;59.274;17.974;2023-07-02T00:53:47;99021.94;;;16.00;78.45
71476;BME280;59286;59.274;17.974;2023-07-02T00:56:13;99020.00;;;15.97;78.95
71476;BME280;59286;59.274;17.974;2023-07-02T00:58:43;99021.16;;;15.96;79.38
71476;BME280;59286;59.274;17.974;2023-07-02T01:01:21;99012.47;;;15.99;78.33
71476;BME280;59286;59.274;17.974;2023-07-02T01:03:56;99007.94;;;15.96;79.23
71476;BME280;59286;59.274;17.974;2023-07-02T01:06:26;99014.41;;;16.02;78.76
71476;BME280;59286;59.274;17.974;2023-07-02T01:09:00;99009.84;;;15.99;79.18
71476;BME280;59286;59.274;17.974;2023-07-02T01:11:47;99001.50;;;15.97;79.23
71476;BME280;59286;59.274;17.974;2023-07-02T01:16:47;98990.56;;;15.95;78.89
71476;BME280;59286;59.274;17.974;2023-07-02T01:19:21;98988.66;;;15.92;79.25
71476;BME280;59286;59.274;17.974;2023-07-02T01:21:48;98979.97;;;15.95;79.08
71476;BME280;59286;59.274;17.974;2023-07-02T01:24:15;98976.59;;;15.94;79.12
71476;BME280;59286;59.274;17.974;2023-07-02T01:26:41;98985.69;;;16.04;77.92
71476;BME280;59286;59.274;17.974;2023-07-02T01:29:17;98983.44;;;16.06;78.16
71476;BME280;59286;59.274;17.974;2023-07-02T01:31:43;98976.25;;;16.03;78.03
71476;BME280;59286;59.274;17.974;2023-07-02T01:34:09;98983.41;;;15.99;78.87
71476;BME280;59286;59.274;17.974;2023-07-02T01:36:36;98979.66;;;16.00;79.06
71476;BME280;59286;59.274;17.974;2023-07-02T01:39:02;98976.66;;;16.05;78.68
71476;BME280;59286;59.274;17.974;2023-07-02T01:41:27;98965.28;;;16.01;79.24
71476;BME280;59286;59.274;17.974;2023-07-02T01:43:53;98967.94;;;16.01;79.48
71476;BME280;59286;59.274;17.974;2023-07-02T01:46:18;98961.91;;;16.04;79.36
71476;BME280;59286;59.274;17.974;2023-07-02T01:48:43;98965.31;;;16.08;79.75
71476;BME280;59286;59.274;17.974;2023-07-02T01:51:09;98964.25;;;16.16;79.68
71476;BME280;59286;59.274;17.974;2023-07-02T01:53:34;98968.44;;;16.24;79.44
71476;BME280;59286;59.274;17.974;2023-07-02T01:55:59;98961.66;;;16.26;79.20
71476;BME280;59286;59.274;17.974;2023-07-02T01:58:24;98957.53;;;16.36;79.33
71476;BME280;59286;59.274;17.974;2023-07-02T02:00:50;98952.63;;;16.34;79.39
71476;BME280;59286;59.274;17.974;2023-07-02T02:03:15;98958.31;;;16.40;79.51
71476;BME280;59286;59.274;17.974;2023-07-02T02:05:40;98945.09;;;16.40;79.05
71476;BME280;59286;59.274;17.974;2023-07-02T02:08:06;98941.34;;;16.44;78.23
71476;BME280;59286;59.274;17.974;2023-07-02T02:10:31;98945.91;;;16.51;78.38
71476;BME280;59286;59.274;17.974;2023-07-02T02:12:56;98935.31;;;16.48;78.20
71476;BME280;59286;59.274;17.974;2023-07-02T02:15:22;98929.22;;;16.43;78.17
71476;BME280;59286;59.274;17.974;2023-07-02T02:17:47;98926.97;;;16.42;78.69
71476;BME280;59286;59.274;17.974;2023-07-02T02:20:12;98936.09;;;16.48;79.14
71476;BME280;59286;59.274;17.974;2023-07-02T02:22:38;98925.06;;;16.39;78.85
71476;BME280;59286;59.274;17.974;2023-07-02T02:25:03;98920.91;;;16.45;79.37
71476;BME280;59286;59.274;17.974;2023-07-02T02:27:29;98931.16;;;16.46;79.10
71476;BME280;59286;59.274;17.974;2023-07-02T02:29:54;98924.69;;;16.44;79.44
71476;BME280;59286;59.274;17.974;2023-07-02T02:32:20;98930.03;;;16.51;80.03
71476;BME280;59286;59.274;17.974;2023-07-02T02:34:47;98924.38;;;16.56;80.04
71476;BME280;59286;59.274;17.974;2023-07-02T02:37:12;98930.81;;;16.62;79.81
71476;BME280;59286;59.274;17.974;2023-07-02T02:39:37;98922.16;;;16.65;79.87
71476;BME280;59286;59.274;17.974;2023-07-02T02:42:03;98921.78;;;16.74;79.62
71476;BME280;59286;59.274;17.974;2023-07-02T02:44:28;98919.91;;;16.81;79.19
71476;BME280;59286;59.274;17.974;2023-07-02T02:46:54;98924.47;;;16.91;78.65
71476;BME280;59286;59.274;17.974;2023-07-02T02:49:20;98921.81;;;16.91;78.47
71476;BME280;59286;59.274;17.974;2023-07-02T02:51:45;98921.44;;;16.96;77.84
71476;BME280;59286;59.274;17.974;2023-07-02T02:54:10;98912.75;;;16.99;77.82
71476;BME280;59286;59.274;17.974;2023-07-02T02:56:36;98910.47;;;17.05;77.61
71476;BME280;59286;59.274;17.974;2023-07-02T02:59:01;98908.97;;;17.11;77.64
71476;BME280;59286;59.274;17.974;2023-07-02T03:01:26;98918.78;;;17.14;77.40
71476;BME280;59286;59.274;17.974;2023-07-02T03:03:58;98906.69;;;17.16;77.39
71476;BME280;59286;59.274;17.974;2023-07-02T03:06:23;98912.75;;;17.17;77.13
71476;BME280;59286;59.274;17.974;2023-07-02T03:08:49;98909.72;;;17.11;77.64
71476;BME280;59286;59.274;17.974;2023-07-02T03:11:14;98902.53;;;17.12;77.33
71476;BME280;59286;59.274;17.974;2023-07-02T03:13:39;98896.09;;;17.16;76.91
71476;BME280;59286;59.274;17.974;2023-07-02T03:16:05;98896.88;;;17.20;76.78
71476;BME280;59286;59.274;17.974;2023-07-02T03:18:31;98886.28;;;17.20;76.82
71476;BME280;59286;59.274;17.974;2023-07-02T03:20:56;98891.56;;;17.27;76.72
71476;BME280;59286;59.274;17.974;2023-07-02T03:23:21;98880.94;;;17.34;76.03
71476;BME280;59286;59.274;17.974;2023-07-02T03:25:47;98888.53;;;17.36;76.00
71476;BME280;59286;59.274;17.974;2023-07-02T03:28:12;98880.22;;;17.37;75.83
71476;BME280;59286;59.274;17.974;2023-07-02T03:30:37;98883.25;;;17.36;75.33
71476;BME280;59286;59.274;17.974;2023-07-02T03:33:03;98882.09;;;17.33;75.50
71476;BME280;59286;59.274;17.974;2023-07-02T03:35:29;98869.59;;;17.27;76.12
71476;BME280;59286;59.274;17.974;2023-07-02T03:37:54;98869.63;;;17.30;75.96
71476;BME280;59286;59.274;17.974;2023-07-02T03:40:19;98860.53;;;17.31;76.04
71476;BME280;59286;59.274;17.974;2023-07-02T03:42:45;98869.63;;;17.37;76.10
71476;BME280;59286;59.274;17.974;2023-07-02T03:45:10;98856.38;;;17.30;75.62
71476;BME280;59286;59.274;17.974;2023-07-02T03:47:35;98848.06;;;17.28;75.93
71476;BME280;59286;59.274;17.974;2023-07-02T03:50:01;98846.16;;;17.29;76.08
71476;BME280;59286;59.274;17.974;2023-07-02T03:52:26;98846.91;;;17.36;75.66
71476;BME280;59286;59.274;17.974;2023-07-02T03:54:52;98844.25;;;17.36;75.56
71476;BME280;59286;59.274;17.974;2023-07-02T03:57:17;98848.41;;;17.41;75.46
71476;BME280;59286;59.274;17.974;2023-07-02T03:59:43;98834.41;;;17.44;75.50
71476;BME280;59286;59.274;17.974;2023-07-02T04:02:08;98836.66;;;17.45;75.35
71476;BME280;59286;59.274;17.974;2023-07-02T04:04:34;98840.06;;;17.53;74.93
71476;BME280;59286;59.274;17.974;2023-07-02T04:06:59;98836.69;;;17.53;74.90
71476;BME280;59286;59.274;17.974;2023-07-02T04:09:24;98832.50;;;17.59;75.01
71476;BME280;59286;59.274;17.974;2023-07-02T04:11:50;98830.25;;;17.54;74.87
71476;BME280;59286;59.274;17.974;2023-07-02T04:14:15;98825.31;;;17.52;74.97
71476;BME280;59286;59.274;17.974;2023-07-02T04:16:43;98826.44;;;17.51;75.49
71476;BME280;59286;59.274;17.974;2023-07-02T04:19:09;98808.25;;;17.64;74.86
71476;BME280;59286;59.274;17.974;2023-07-02T04:21:34;98814.66;;;17.77;74.38
71476;BME280;59286;59.274;17.974;2023-07-02T04:24:00;98821.44;;;17.88;74.61
71476;BME280;59286;59.274;17.974;2023-07-02T04:26:25;98809.63;;;17.96;73.93
71476;BME280;59286;59.274;17.974;2023-07-02T04:28:52;98806.16;;;18.10;73.93
71476;BME280;59286;59.274;17.974;2023-07-02T04:31:17;98808.00;;;18.20;72.51
71476;BME280;59286;59.274;17.974;2023-07-02T04:33:43;98810.94;;;18.36;72.45
71476;BME280;59286;59.274;17.974;2023-07-02T04:36:08;98804.47;;;18.37;72.19
71476;BME280;59286;59.274;17.974;2023-07-02T04:38:33;98803.31;;;18.45;71.99
71476;BME280;59286;59.274;17.974;2023-07-02T04:40:58;98798.41;;;18.40;71.94
71476;BME280;59286;59.274;17.974;2023-07-02T04:43:27;98793.09;;;18.40;71.94
71476;BME280;59286;59.274;17.974;2023-07-02T04:45:54;98797.22;;;18.48;71.58
71476;BME280;59286;59.274;17.974;2023-07-02T04:48:20;98785.91;;;18.44;71.40
71476;BME280;59286;59.274;17.974;2023-07-02T04:50:45;98782.88;;;18.42;71.25
71476;BME280;59286;59.274;17.974;2023-07-02T04:53:10;98776.03;;;18.41;71.55
71476;BME280;59286;59.274;17.974;2023-07-02T04:55:36;98778.28;;;18.50;71.66
71476;BME280;59286;59.274;17.974;2023-07-02T04:58:01;98768.50;;;18.36;71.13
71476;BME280;59286;59.274;17.974;2023-07-02T05:00:26;98773.88;;;18.25;72.04
71476;BME280;59286;59.274;17.974;2023-07-02T05:02:52;98773.56;;;18.13;72.42
71476;BME280;59286;59.274;17.974;2023-07-02T05:05:17;98774.66;;;18.19;72.68
71476;BME280;59286;59.274;17.974;2023-07-02T05:07:43;98764.13;;;18.08;72.11
71476;BME280;59286;59.274;17.974;2023-07-02T05:10:08;98764.13;;;18.08;72.75
71476;BME280;59286;59.274;17.974;2023-07-02T05:12:34;98758.00;;;18.15;72.15
71476;BME280;59286;59.274;17.974;2023-07-02T05:14:59;98767.06;;;18.21;71.82
71476;BME280;59286;59.274;17.974;2023-07-02T05:17:24;98759.50;;;18.19;72.18
71476;BME280;59286;59.274;17.974;2023-07-02T05:19:50;98757.59;;;18.23;72.08
71476;BME280;59286;59.274;17.974;2023-07-02T05:22:15;98750.41;;;18.20;71.63
71476;BME280;59286;59.274;17.974;2023-07-02T05:24:41;98742.41;;;18.24;71.98
71476;BME280;59286;59.274;17.974;2023-07-02T05:27:06;98747.69;;;18.31;71.99
71476;BME280;59286;59.274;17.974;2023-07-02T05:29:31;98741.22;;;18.32;71.75
71476;BME280;59286;59.274;17.974;2023-07-02T05:31:57;98751.78;;;18.43;71.46
71476;BME280;59286;59.274;17.974;2023-07-02T05:34:22;98748.72;;;18.40;71.79
71476;BME280;59286;59.274;17.974;2023-07-02T05:36:47;98737.88;;;18.24;72.42
71476;BME280;59286;59.274;17.974;2023-07-02T05:39:13;98740.53;;;18.21;71.88
71476;BME280;59286;59.274;17.974;2023-07-02T05:41:38;98747.41;;;18.15;72.17
71476;BME280;59286;59.274;17.974;2023-07-02T05:44:03;98739.81;;;18.17;72.51
71476;BME280;59286;59.274;17.974;2023-07-02T05:46:29;98727.25;;;18.24;72.03
71476;BME280;59286;59.274;17.974;2023-07-02T05:48:54;98732.59;;;18.21;72.32
71476;BME280;59286;59.274;17.974;2023-07-02T05:51:23;98732.16;;;18.26;72.43
71476;BME280;59286;59.274;17.974;2023-07-02T05:53:49;98732.53;;;18.28;72.08
71476;BME280;59286;59.274;17.974;2023-07-02T05:56:15;98717.72;;;18.34;72.41
71476;BME280;59286;59.274;17.974;2023-07-02T05:58:40;98713.19;;;18.27;71.97
71476;BME280;59286;59.274;17.974;2023-07-02T06:01:06;98715.84;;;18.31;71.35
71476;BME280;59286;59.274;17.974;2023-07-02T06:03:31;98714.09;;;18.14;71.81
71476;BME280;59286;59.274;17.974;2023-07-02T06:05:57;98728.06;;;18.14;72.31
71476;BME280;59286;59.274;17.974;2023-07-02T06:08:22;98710.25;;;18.18;72.09
71476;BME280;59286;59.274;17.974;2023-07-02T06:10:47;98719.63;;;18.30;71.97
71476;BME280;59286;59.274;17.974;2023-07-02T06:13:13;98718.03;;;18.43;71.88
71476;BME280;59286;59.274;17.974;2023-07-02T06:15:39;98713.03;;;18.52;71.01
71476;BME280;59286;59.274;17.974;2023-07-02T06:18:04;98708.50;;;18.53;71.61
71476;BME280;59286;59.274;17.974;2023-07-02T06:20:30;98707.41;;;18.47;71.07
71476;BME280;59286;59.274;17.974;2023-07-02T06:22:55;98710.78;;;18.51;71.23
71476;BME280;59286;59.274;17.974;2023-07-02T06:25:20;98702.03;;;18.54;70.91
71476;BME280;59286;59.274;17.974;2023-07-02T06:27:46;98696.72;;;18.57;70.73
71476;BME280;59286;59.274;17.974;2023-07-02T06:30:11;98704.31;;;18.55;70.78
71476;BME280;59286;59.274;17.974;2023-07-02T06:32:37;98695.56;;;18.58;71.10
71476;BME280;59286;59.274;17.974;2023-07-02T06:35:02;98692.44;;;18.67;70.97
71476;BME280;59286;59.274;17.974;2023-07-02T06:37:28;98693.91;;;18.71;70.41
71476;BME280;59286;59.274;17.974;2023-07-02T06:39:53;98694.72;;;18.68;70.61
71476;BME280;59286;59.274;17.974;2023-07-02T06:42:19;98692.50;;;18.60;70.52
71476;BME280;59286;59.274;17.974;2023-07-02T06:44:44;98672.84;;;18.54;70.58
71476;BME280;59286;59.274;17.974;2023-07-02T06:47:09;98685.59;;;18.69;70.55
71476;BME280;59286;59.274;17.974;2023-07-02T06:49:36;98678.84;;;18.61;70.08
71476;BME280;59286;59.274;17.974;2023-07-02T06:52:01;98679.16;;;18.70;70.20
71476;BME280;59286;59.274;17.974;2023-07-02T06:54:26;98671.19;;;18.70;70.56
71476;BME280;59286;59.274;17.974;2023-07-02T06:56:52;98660.63;;;18.63;70.62
71476;BME280;59286;59.274;17.974;2023-07-02T06:59:21;98670.00;;;18.75;70.62
71476;BME280;59286;59.274;17.974;2023-07-02T07:01:47;98665.16;;;18.66;70.82
71476;BME280;59286;59.274;17.974;2023-07-02T07:04:12;98663.91;;;18.74;70.39
71476;BME280;59286;59.274;17.974;2023-07-02T07:06:37;98657.59;;;18.65;71.24
71476;BME280;59286;59.274;17.974;2023-07-02T07:09:03;98667.88;;;18.59;73.30
71476;BME280;59286;59.274;17.974;2023-07-02T07:11:28;98661.56;;;18.46;74.92
71476;BME280;59286;59.274;17.974;2023-07-02T07:13:55;98653.09;;;18.14;76.49
71476;BME280;59286;59.274;17.974;2023-07-02T07:16:20;98656.69;;;17.90;79.20
71476;BME280;59286;59.274;17.974;2023-07-02T07:18:45;98643.94;;;17.71;79.97
71476;BME280;59286;59.274;17.974;2023-07-02T07:21:11;98645.13;;;17.59;81.28
71476;BME280;59286;59.274;17.974;2023-07-02T07:23:36;98639.47;;;17.57;81.62
71476;BME280;59286;59.274;17.974;2023-07-02T07:26:01;98640.91;;;17.69;81.29
71476;BME280;59286;59.274;17.974;2023-07-02T07:28:27;98633.28;;;17.78;81.61
71476;BME280;59286;59.274;17.974;2023-07-02T07:30:52;98634.72;;;17.89;81.05
71476;BME280;59286;59.274;17.974;2023-07-02T07:33:17;98634.31;;;17.91;80.42
71476;BME280;59286;59.274;17.974;2023-07-02T07:35:42;98621.09;;;17.87;79.75
71476;BME280;59286;59.274;17.974;2023-07-02T07:38:08;98626.41;;;17.84;80.54
71476;BME280;59286;59.274;17.974;2023-07-02T07:40:33;98631.72;;;17.84;81.45
71476;BME280;59286;59.274;17.974;2023-07-02T07:42:59;98627.94;;;17.81;82.03
71476;BME280;59286;59.274;17.974;2023-07-02T07:45:24;98625.09;;;17.58;82.44
71476;BME280;59286;59.274;17.974;2023-07-02T07:47:49;98622.91;;;17.35;83.89
71476;BME280;59286;59.274;17.974;2023-07-02T07:50:15;98622.25;;;17.14;86.66
71476;BME280;59286;59.274;17.974;2023-07-02T07:52:41;98628.00;;;16.98;87.92
71476;BME280;59286;59.274;17.974;2023-07-02T07:55:07;98629.94;;;16.87;89.48
71476;BME280;59286;59.274;17.974;2023-07-02T07:57:36;98622.78;;;16.77;90.53
71476;BME280;59286;59.274;17.974;2023-07-02T08:00:03;98627.38;;;16.52;91.21
71476;BME280;59286;59.274;17.974;2023-07-02T08:02:30;98621.72;;;16.29;94.16
71476;BME280;59286;59.274;17.974;2023-07-02T08:04:55;98620.56;;;16.23;96.19
71476;BME280;59286;59.274;17.974;2023-07-02T08:07:21;98615.66;;;16.25;96.89
71476;BME280;59286;59.274;17.974;2023-07-02T08:09:46;98617.19;;;16.33;96.95
71476;BME280;59286;59.274;17.974;2023-07-02T08:12:11;98620.56;;;16.26;97.69
71476;BME280;59286;59.274;17.974;2023-07-02T08:14:37;98608.13;;;16.20;97.62
71476;BME280;59286;59.274;17.974;2023-07-02T08:17:02;98614.91;;;16.21;99.23
71476;BME280;59286;59.274;17.974;2023-07-02T08:19:27;98601.31;;;16.26;99.60
71476;BME280;59286;59.274;17.974;2023-07-02T08:21:53;98610.38;;;16.39;99.52
71476;BME280;59286;59.274;17.974;2023-07-02T08:24:18;98613.75;;;16.39;98.40
71476;BME280;59286;59.274;17.974;2023-07-02T08:26:43;98611.50;;;16.38;99.11
71476;BME280;59286;59.274;17.974;2023-07-02T08:29:10;98615.66;;;16.28;99.98
71476;BME280;59286;59.274;17.974;2023-07-02T08:31:35;98611.16;;;16.22;100.00
71476;BME280;59286;59.274;17.974;2023-07-02T08:34:01;98619.84;;;16.26;100.00
71476;BME280;59286;59.274;17.974;2023-07-02T08:36:26;98632.31;;;16.18;100.00
71476;BME280;59286;59.274;17.974;2023-07-02T08:38:51;98626.25;;;16.21;100.00
71476;BME280;59286;59.274;17.974;2023-07-02T08:41:17;98614.16;;;16.13;100.00
71476;BME280;59286;59.274;17.974;2023-07-02T08:43:44;98605.88;;;16.01;100.00
71476;BME280;59286;59.274;17.974;2023-07-02T08:46:10;98600.59;;;15.94;100.00
71476;BME280;59286;59.274;17.974;2023-07-02T08:48:36;98604.72;;;15.81;100.00
71476;BME280;59286;59.274;17.974;2023-07-02T08:51:02;98605.13;;;15.76;100.00
71476;BME280;59286;59.274;17.974;2023-07-02T08:53:28;98594.53;;;15.72;100.00
71476;BME280;59286;59.274;17.974;2023-07-02T08:55:59;98593.78;;;15.79;100.00
71476;BME280;59286;59.274;17.974;2023-07-02T08:58:25;98579.81;;;15.82;100.00
71476;BME280;59286;59.274;17.974;2023-07-02T09:01:12;98572.25;;;15.87;100.00
71476;BME280;59286;59.274;17.974;2023-07-02T09:03:39;98564.34;;;15.91;100.00
71476;BME280;59286;59.274;17.974;2023-07-02T09:06:08;98576.44;;;15.92;100.00
71476;BME280;59286;59.274;17.974;2023-07-02T09:08:34;98577.19;;;15.92;100.00
71476;BME280;59286;59.274;17.974;2023-07-02T09:11:10;98583.22;;;15.93;100.00
71476;BME280;59286;59.274;17.974;2023-07-02T09:14:02;98585.50;;;15.98;100.00
71476;BME280;59286;59.274;17.974;2023-07-02T09:16:31;98590.78;;;15.98;100.00
71476;BME280;59286;59.274;17.974;2023-07-02T09:19:03;98580.59;;;16.00;100.00
71476;BME280;59286;59.274;17.974;2023-07-02T09:24:17;98576.41;;;16.13;100.00
71476;BME280;59286;59.274;17.974;2023-07-02T09:26:51;98573.38;;;16.25;100.00
71476;BME280;59286;59.274;17.974;2023-07-02T09:29:32;98566.56;;;16.34;100.00
71476;BME280;59286;59.274;17.974;2023-07-02T09:31:59;98556.72;;;16.35;100.00
71476;BME280;59286;59.274;17.974;2023-07-02T09:34:32;98561.25;;;16.38;100.00
71476;BME280;59286;59.274;17.974;2023-07-02T09:36:58;98562.75;;;16.46;100.00
71476;BME280;59286;59.274;17.974;2023-07-02T09:39:28;98555.94;;;16.45;100.00
71476;BME280;59286;59.274;17.974;2023-07-02T09:41:58;98546.16;;;16.38;100.00
71476;BME280;59286;59.274;17.974;2023-07-02T09:44:29;98541.59;;;16.50;100.00
71476;BME280;59286;59.274;17.974;2023-07-02T09:47:01;98537.06;;;16.54;100.00
71476;BME280;59286;59.274;17.974;2023-07-02T09:49:31;98543.09;;;16.47;100.00
71476;BME280;59286;59.274;17.974;2023-07-02T09:52:17;98542.72;;;16.41;100.00
71476;BME280;59286;59.274;17.974;2023-07-02T09:54:44;98536.34;;;16.39;100.00
71476;BME280;59286;59.274;17.974;2023-07-02T09:57:10;98530.31;;;16.21;100.00
71476;BME280;59286;59.274;17.974;2023-07-02T09:59:35;98535.97;;;16.23;100.00
71476;BME280;59286;59.274;17.974;2023-07-02T10:02:00;98537.13;;;16.15;100.00
71476;BME280;59286;59.274;17.974;2023-07-02T10:04:26;98532.22;;;16.06;100.00
71476;BME280;59286;59.274;17.974;2023-07-02T10:06:53;98530.34;;;16.07;100.00
71476;BME280;59286;59.274;17.974;2023-07-02T10:09:20;98525.81;;;16.07;100.00
71476;BME280;59286;59.274;17.974;2023-07-02T10:11:46;98528.09;;;16.05;100.00
71476;BME280;59286;59.274;17.974;2023-07-02T10:14:12;98524.31;;;15.99;100.00
71476;BME280;59286;59.274;17.974;2023-07-02T10:16:50;98527.34;;;15.98;100.00
71476;BME280;59286;59.274;17.974;2023-07-02T10:19:16;98523.56;;;15.92;100.00
71476;BME280;59286;59.274;17.974;2023-07-02T10:21:41;98520.56;;;15.86;100.00
71476;BME280;59286;59.274;17.974;2023-07-02T10:24:11;98522.84;;;15.81;100.00
71476;BME280;59286;59.274;17.974;2023-07-02T10:26:37;98511.13;;;15.75;100.00
71476;BME280;59286;59.274;17.974;2023-07-02T10:29:02;98510.00;;;15.76;100.00
71476;BME280;59286;59.274;17.974;2023-07-02T10:31:28;98502.47;;;15.67;100.00
71476;BME280;59286;59.274;17.974;2023-07-02T10:33:54;98506.97;;;15.67;100.00
71476;BME280;59286;59.274;17.974;2023-07-02T10:36:21;98498.31;;;15.70;100.00
71476;BME280;59286;59.274;17.974;2023-07-02T10:38:47;98501.69;;;15.63;100.00
71476;BME280;59286;59.274;17.974;2023-07-02T10:41:26;98501.69;;;15.70;100.00
71476;BME280;59286;59.274;17.974;2023-07-02T10:43:52;98496.03;;;15.79;100.00
71476;BME280;59286;59.274;17.974;2023-07-02T10:46:23;98497.53;;;15.87;100.00
71476;BME280;59286;59.274;17.974;2023-07-02T10:48:55;98490.75;;;15.86;100.00
71476;BME280;59286;59.274;17.974;2023-07-02T10:51:21;98491.13;;;15.88;100.00
71476;BME280;59286;59.274;17.974;2023-07-02T10:54:00;98485.44;;;15.86;100.00
71476;BME280;59286;59.274;17.974;2023-07-02T10:56:27;98481.31;;;15.88;100.00
71476;BME280;59286;59.274;17.974;2023-07-02T10:58:53;98487.34;;;15.96;100.00
71476;BME280;59286;59.274;17.974;2023-07-02T11:01:25;98474.13;;;15.96;100.00
71476;BME280;59286;59.274;17.974;2023-07-02T11:04:02;98462.41;;;15.93;100.00
71476;BME280;59286;59.274;17.974;2023-07-02T11:06:29;98473.75;;;15.94;100.00
71476;BME280;59286;59.274;17.974;2023-07-02T11:08:56;98479.78;;;15.84;100.00
71476;BME280;59286;59.274;17.974;2023-07-02T11:11:22;98476.78;;;15.82;100.00
71476;BME280;59286;59.274;17.974;2023-07-02T11:13:49;98480.19;;;15.79;100.00
71476;BME280;59286;59.274;17.974;2023-07-02T11:18:44;98475.28;;;15.67;100.00
71476;BME280;59286;59.274;17.974;2023-07-02T11:21:10;98479.47;;;15.61;100.00
71476;BME280;59286;59.274;17.974;2023-07-02T11:23:35;98481.34;;;15.49;100.00
71476;BME280;59286;59.274;17.974;2023-07-02T11:26:02;98487.38;;;15.43;100.00
71476;BME280;59286;59.274;17.974;2023-07-02T11:28:29;98486.59;;;15.32;100.00
71476;BME280;59286;59.274;17.974;2023-07-02T11:30:55;98484.69;;;15.25;100.00
71476;BME280;59286;59.274;17.974;2023-07-02T11:33:35;98485.81;;;15.24;100.00
71476;BME280;59286;59.274;17.974;2023-07-02T11:36:01;98466.97;;;15.29;100.00
71476;BME280;59286;59.274;17.974;2023-07-02T11:38:26;98451.16;;;15.36;100.00
71476;BME280;59286;59.274;17.974;2023-07-02T11:40:51;98450.75;;;15.38;100.00
71476;BME280;59286;59.274;17.974;2023-07-02T11:43:17;98448.13;;;15.38;100.00
71476;BME280;59286;59.274;17.974;2023-07-02T11:45:43;98447.38;;;15.48;100.00
71476;BME280;59286;59.274;17.974;2023-07-02T11:48:08;98459.47;;;15.49;100.00
71476;BME280;59286;59.274;17.974;2023-07-02T11:50:33;98467.75;;;15.51;100.00
71476;BME280;59286;59.274;17.974;2023-07-02T11:52:59;98471.50;;;15.57;100.00
71476;BME280;59286;59.274;17.974;2023-07-02T11:55:24;98474.16;;;15.68;100.00
71476;BME280;59286;59.274;17.974;2023-07-02T11:57:49;98473.03;;;15.76;100.00
71476;BME280;59286;59.274;17.974;2023-07-02T12:00:15;98474.88;;;15.89;100.00
71476;BME280;59286;59.274;17.974;2023-07-02T12:02:40;98472.59;;;15.95;100.00
71476;BME280;59286;59.274;17.974;2023-07-02T12:05:06;98481.28;;;15.99;100.00
71476;BME280;59286;59.274;17.974;2023-07-02T12:07:31;98482.81;;;16.00;100.00
71476;BME280;59286;59.274;17.974;2023-07-02T12:09:56;98484.28;;;16.08;100.00
71476;BME280;59286;59.274;17.974;2023-07-02T12:12:22;98485.41;;;16.10;100.00
71476;BME280;59286;59.274;17.974;2023-07-02T12:14:47;98494.09;;;16.14;100.00
71476;BME280;59286;59.274;17.974;2023-07-02T12:17:12;98499.31;;;16.32;100.00
71476;BME280;59286;59.274;17.974;2023-07-02T12:19:39;98498.16;;;16.43;100.00
71476;BME280;59286;59.274;17.974;2023-07-02T12:22:05;98514.41;;;16.42;100.00
71476;BME280;59286;59.274;17.974;2023-07-02T12:24:30;98506.06;;;16.43;100.00
71476;BME280;59286;59.274;17.974;2023-07-02T12:26:55;98508.00;;;16.50;100.00
71476;BME280;59286;59.274;17.974;2023-07-02T12:29:20;98513.66;;;16.38;100.00
71476;BME280;59286;59.274;17.974;2023-07-02T12:31:46;98517.81;;;16.39;100.00
71476;BME280;59286;59.274;17.974;2023-07-02T12:34:11;98518.16;;;16.41;100.00
71476;BME280;59286;59.274;17.974;2023-07-02T12:36:36;98520.81;;;16.52;100.00
71476;BME280;59286;59.274;17.974;2023-07-02T12:39:02;98524.19;;;16.45;100.00
71476;BME280;59286;59.274;17.974;2023-07-02T12:41:27;98521.19;;;16.46;100.00
71476;BME280;59286;59.274;17.974;2023-07-02T12:43:53;98511.38;;;16.51;100.00
71476;BME280;59286;59.274;17.974;2023-07-02T12:46:18;98520.78;;;16.62;100.00
71476;BME280;59286;59.274;17.974;2023-07-02T12:48:44;98523.38;;;16.69;100.00
71476;BME280;59286;59.274;17.974;2023-07-02T12:51:09;98521.50;;;16.70;100.00